sensor_id;sensor_type;location;lat;lon;timestamp;P1;durP1;ratioP1;P2;durP2;ratioP2
12474;SDS011;6302;42.624;23.334;2023-04-24T00:01:55;8.40;;;7.60;;
12474;SDS011;6302;42.624;23.334;2023-04-24T00:04:23;12.33;;;9.40;;
12474;SDS011;6302;42.624;23.334;2023-04-24T00:06:51;10.90;;;7.43;;
12474;SDS011;6302;42.624;23.334;2023-04-24T00:09:19;9.30;;;7.70;;
12474;SDS011;6302;42.624;23.334;2023-04-24T00:11:46;11.00;;;8.53;;
12474;SDS011;6302;42.624;23.334;2023-04-24T00:14:13;9.57;;;7.80;;
12474;SDS011;6302;42.624;23.334;2023-04-24T00:16:40;11.37;;;8.23;;
12474;SDS011;6302;42.624;23.334;2023-04-24T00:19:08;10.67;;;8.00;;
12474;SDS011;6302;42.624;23.334;2023-04-24T00:21:36;8.90;;;7.77;;
12474;SDS011;6302;42.624;23.334;2023-04-24T00:24:03;9.23;;;8.23;;
12474;SDS011;6302;42.624;23.334;2023-04-24T00:26:30;9.80;;;8.10;;
12474;SDS011;6302;42.624;23.334;2023-04-24T00:28:57;9.50;;;8.27;;
12474;SDS011;6302;42.624;23.334;2023-04-24T00:31:24;10.13;;;8.60;;
12474;SDS011;6302;42.624;23.334;2023-04-24T00:33:50;9.17;;;8.27;;
12474;SDS011;6302;42.624;23.334;2023-04-24T00:36:19;10.63;;;8.13;;
12474;SDS011;6302;42.624;23.334;2023-04-24T00:38:46;9.00;;;7.40;;
12474;SDS011;6302;42.624;23.334;2023-04-24T00:41:12;7.73;;;6.93;;
12474;SDS011;6302;42.624;23.334;2023-04-24T00:43:39;11.30;;;8.50;;
12474;SDS011;6302;42.624;23.334;2023-04-24T00:46:06;10.07;;;9.07;;
12474;SDS011;6302;42.624;23.334;2023-04-24T00:48:33;14.00;;;9.53;;
12474;SDS011;6302;42.624;23.334;2023-04-24T00:51:00;10.17;;;8.50;;
12474;SDS011;6302;42.624;23.334;2023-04-24T00:53:29;10.70;;;8.77;;
12474;SDS011;6302;42.624;23.334;2023-04-24T00:55:56;10.43;;;8.20;;
12474;SDS011;6302;42.624;23.334;2023-04-24T00:58:24;12.80;;;9.10;;
12474;SDS011;6302;42.624;23.334;2023-04-24T01:00:51;9.53;;;8.53;;
12474;SDS011;6302;42.624;23.334;2023-04-24T01:03:19;13.93;;;8.93;;
12474;SDS011;6302;42.624;23.334;2023-04-24T01:05:47;10.43;;;8.83;;
12474;SDS011;6302;42.624;23.334;2023-04-24T01:08:15;9.57;;;7.60;;
12474;SDS011;6302;42.624;23.334;2023-04-24T01:10:44;12.10;;;9.10;;
12474;SDS011;6302;42.624;23.334;2023-04-24T01:13:12;9.67;;;8.43;;
12474;SDS011;6302;42.624;23.334;2023-04-24T01:15:39;9.27;;;8.00;;
12474;SDS011;6302;42.624;23.334;2023-04-24T01:18:06;10.70;;;8.40;;
12474;SDS011;6302;42.624;23.334;2023-04-24T01:20:32;9.77;;;8.47;;
12474;SDS011;6302;42.624;23.334;2023-04-24T01:23:03;12.53;;;8.97;;
12474;SDS011;6302;42.624;23.334;2023-04-24T01:25:30;10.47;;;8.33;;
12474;SDS011;6302;42.624;23.334;2023-04-24T01:27:57;11.60;;;9.17;;
12474;SDS011;6302;42.624;23.334;2023-04-24T01:30:24;11.77;;;10.10;;
12474;SDS011;6302;42.624;23.334;2023-04-24T01:32:51;12.93;;;8.60;;
12474;SDS011;6302;42.624;23.334;2023-04-24T01:35:18;13.57;;;8.73;;
12474;SDS011;6302;42.624;23.334;2023-04-24T01:37:45;10.80;;;8.77;;
12474;SDS011;6302;42.624;23.334;2023-04-24T01:40:13;13.27;;;10.13;;
12474;SDS011;6302;42.624;23.334;2023-04-24T01:42:41;11.13;;;10.10;;
12474;SDS011;6302;42.624;23.334;2023-04-24T01:45:10;11.63;;;9.20;;
12474;SDS011;6302;42.624;23.334;2023-04-24T01:47:38;12.53;;;9.57;;
12474;SDS011;6302;42.624;23.334;2023-04-24T01:50:06;11.07;;;9.97;;
12474;SDS011;6302;42.624;23.334;2023-04-24T01:52:33;11.83;;;10.17;;
12474;SDS011;6302;42.624;23.334;2023-04-24T01:55:01;12.90;;;10.07;;
12474;SDS011;6302;42.624;23.334;2023-04-24T01:57:30;11.30;;;9.60;;
12474;SDS011;6302;42.624;23.334;2023-04-24T01:59:57;11.70;;;9.90;;
12474;SDS011;6302;42.624;23.334;2023-04-24T02:02:24;16.20;;;10.80;;
12474;SDS011;6302;42.624;23.334;2023-04-24T02:04:52;12.23;;;10.07;;
12474;SDS011;6302;42.624;23.334;2023-04-24T02:07:19;11.80;;;10.60;;
12474;SDS011;6302;42.624;23.334;2023-04-24T02:09:46;12.00;;;9.43;;
12474;SDS011;6302;42.624;23.334;2023-04-24T02:12:13;12.93;;;10.10;;
12474;SDS011;6302;42.624;23.334;2023-04-24T02:14:41;11.90;;;10.63;;
12474;SDS011;6302;42.624;23.334;2023-04-24T02:17:08;11.20;;;9.50;;
12474;SDS011;6302;42.624;23.334;2023-04-24T02:19:38;10.77;;;9.67;;
12474;SDS011;6302;42.624;23.334;2023-04-24T02:22:05;12.23;;;9.50;;
12474;SDS011;6302;42.624;23.334;2023-04-24T02:24:32;10.63;;;9.50;;
12474;SDS011;6302;42.624;23.334;2023-04-24T02:26:58;11.33;;;9.20;;
12474;SDS011;6302;42.624;23.334;2023-04-24T02:29:27;13.00;;;10.33;;
12474;SDS011;6302;42.624;23.334;2023-04-24T02:31:56;14.23;;;8.83;;
12474;SDS011;6302;42.624;23.334;2023-04-24T02:34:22;11.00;;;9.47;;
12474;SDS011;6302;42.624;23.334;2023-04-24T02:36:49;10.50;;;9.20;;
12474;SDS011;6302;42.624;23.334;2023-04-24T02:39:16;9.40;;;7.53;;
12474;SDS011;6302;42.624;23.334;2023-04-24T02:41:43;11.87;;;8.70;;
12474;SDS011;6302;42.624;23.334;2023-04-24T02:44:10;8.83;;;7.93;;
12474;SDS011;6302;42.624;23.334;2023-04-24T02:46:37;10.10;;;8.57;;
12474;SDS011;6302;42.624;23.334;2023-04-24T02:49:07;10.53;;;8.50;;
12474;SDS011;6302;42.624;23.334;2023-04-24T02:51:34;10.13;;;8.93;;
12474;SDS011;6302;42.624;23.334;2023-04-24T02:54:07;10.20;;;9.20;;
12474;SDS011;6302;42.624;23.334;2023-04-24T02:56:34;10.00;;;8.67;;
12474;SDS011;6302;42.624;23.334;2023-04-24T02:59:01;10.03;;;9.03;;
12474;SDS011;6302;42.624;23.334;2023-04-24T03:01:28;9.60;;;8.67;;
12474;SDS011;6302;42.624;23.334;2023-04-24T03:03:55;9.17;;;8.27;;
12474;SDS011;6302;42.624;23.334;2023-04-24T03:06:24;10.63;;;8.23;;
12474;SDS011;6302;42.624;23.334;2023-04-24T03:08:52;8.80;;;8.00;;
12474;SDS011;6302;42.624;23.334;2023-04-24T03:11:18;9.70;;;8.47;;
12474;SDS011;6302;42.624;23.334;2023-04-24T03:13:45;9.53;;;8.57;;
12474;SDS011;6302;42.624;23.334;2023-04-24T03:16:12;9.80;;;8.67;;
12474;SDS011;6302;42.624;23.334;2023-04-24T03:18:39;10.27;;;8.70;;
12474;SDS011;6302;42.624;23.334;2023-04-24T03:21:06;9.63;;;8.40;;
12474;SDS011;6302;42.624;23.334;2023-04-24T03:23:34;12.03;;;8.30;;
12474;SDS011;6302;42.624;23.334;2023-04-24T03:26:01;9.53;;;8.53;;
12474;SDS011;6302;42.624;23.334;2023-04-24T03:28:28;8.07;;;7.33;;
12474;SDS011;6302;42.624;23.334;2023-04-24T03:30:54;11.07;;;8.47;;
12474;SDS011;6302;42.624;23.334;2023-04-24T03:33:21;9.23;;;8.40;;
12474;SDS011;6302;42.624;23.334;2023-04-24T03:35:48;9.47;;;8.30;;
12474;SDS011;6302;42.624;23.334;2023-04-24T03:38:15;9.63;;;8.60;;
12474;SDS011;6302;42.624;23.334;2023-04-24T03:40:43;10.77;;;8.17;;
12474;SDS011;6302;42.624;23.334;2023-04-24T03:43:10;9.83;;;8.83;;
12474;SDS011;6302;42.624;23.334;2023-04-24T03:45:37;9.67;;;8.70;;
12474;SDS011;6302;42.624;23.334;2023-04-24T03:48:04;11.30;;;7.77;;
12474;SDS011;6302;42.624;23.334;2023-04-24T03:50:30;11.03;;;8.73;;
12474;SDS011;6302;42.624;23.334;2023-04-24T03:52:57;9.50;;;8.17;;
12474;SDS011;6302;42.624;23.334;2023-04-24T03:55:24;9.90;;;8.10;;
12474;SDS011;6302;42.624;23.334;2023-04-24T03:57:52;9.87;;;8.10;;
12474;SDS011;6302;42.624;23.334;2023-04-24T04:00:19;12.57;;;8.73;;
12474;SDS011;6302;42.624;23.334;2023-04-24T04:02:46;8.73;;;7.83;;
12474;SDS011;6302;42.624;23.334;2023-04-24T04:05:13;8.10;;;7.40;;
12474;SDS011;6302;42.624;23.334;2023-04-24T04:07:40;8.67;;;7.77;;
12474;SDS011;6302;42.624;23.334;2023-04-24T04:10:07;8.87;;;7.90;;
12474;SDS011;6302;42.624;23.334;2023-04-24T04:12:34;8.80;;;7.90;;
12474;SDS011;6302;42.624;23.334;2023-04-24T04:15:02;7.47;;;6.77;;
12474;SDS011;6302;42.624;23.334;2023-04-24T04:17:31;9.23;;;8.13;;
12474;SDS011;6302;42.624;23.334;2023-04-24T04:19:57;8.63;;;7.83;;
12474;SDS011;6302;42.624;23.334;2023-04-24T04:22:25;11.10;;;7.77;;
12474;SDS011;6302;42.624;23.334;2023-04-24T04:24:51;9.10;;;8.10;;
12474;SDS011;6302;42.624;23.334;2023-04-24T04:27:18;10.67;;;8.17;;
12474;SDS011;6302;42.624;23.334;2023-04-24T04:29:46;8.70;;;7.90;;
12474;SDS011;6302;42.624;23.334;2023-04-24T04:32:14;9.00;;;8.13;;
12474;SDS011;6302;42.624;23.334;2023-04-24T04:34:41;8.27;;;7.47;;
12474;SDS011;6302;42.624;23.334;2023-04-24T04:37:10;8.80;;;7.90;;
12474;SDS011;6302;42.624;23.334;2023-04-24T04:39:37;9.00;;;7.77;;
12474;SDS011;6302;42.624;23.334;2023-04-24T04:42:04;12.27;;;7.37;;
12474;SDS011;6302;42.624;23.334;2023-04-24T04:44:31;8.20;;;7.13;;
12474;SDS011;6302;42.624;23.334;2023-04-24T04:47:00;9.73;;;7.70;;
12474;SDS011;6302;42.624;23.334;2023-04-24T04:49:32;10.57;;;7.67;;
12474;SDS011;6302;42.624;23.334;2023-04-24T04:51:59;11.97;;;8.00;;
12474;SDS011;6302;42.624;23.334;2023-04-24T04:54:25;10.67;;;7.83;;
12474;SDS011;6302;42.624;23.334;2023-04-24T04:56:52;8.60;;;7.27;;
12474;SDS011;6302;42.624;23.334;2023-04-24T04:59:19;10.47;;;7.97;;
12474;SDS011;6302;42.624;23.334;2023-04-24T05:01:46;11.37;;;8.10;;
12474;SDS011;6302;42.624;23.334;2023-04-24T05:04:13;10.53;;;7.67;;
12474;SDS011;6302;42.624;23.334;2023-04-24T05:06:41;8.90;;;7.70;;
12474;SDS011;6302;42.624;23.334;2023-04-24T05:09:08;13.37;;;8.03;;
12474;SDS011;6302;42.624;23.334;2023-04-24T05:11:35;10.33;;;8.27;;
12474;SDS011;6302;42.624;23.334;2023-04-24T05:14:01;10.37;;;8.20;;
12474;SDS011;6302;42.624;23.334;2023-04-24T05:16:28;9.30;;;8.33;;
12474;SDS011;6302;42.624;23.334;2023-04-24T05:18:55;9.60;;;8.70;;
12474;SDS011;6302;42.624;23.334;2023-04-24T05:21:22;10.37;;;9.30;;
12474;SDS011;6302;42.624;23.334;2023-04-24T05:23:50;9.40;;;8.37;;
12474;SDS011;6302;42.624;23.334;2023-04-24T05:26:17;11.77;;;9.40;;
12474;SDS011;6302;42.624;23.334;2023-04-24T05:28:44;9.57;;;8.43;;
12474;SDS011;6302;42.624;23.334;2023-04-24T05:31:11;9.93;;;8.30;;
12474;SDS011;6302;42.624;23.334;2023-04-24T05:33:38;11.73;;;8.90;;
12474;SDS011;6302;42.624;23.334;2023-04-24T05:36:05;10.63;;;7.80;;
12474;SDS011;6302;42.624;23.334;2023-04-24T05:38:32;11.83;;;9.00;;
12474;SDS011;6302;42.624;23.334;2023-04-24T05:41:01;9.83;;;8.63;;
12474;SDS011;6302;42.624;23.334;2023-04-24T05:43:28;12.30;;;9.03;;
12474;SDS011;6302;42.624;23.334;2023-04-24T05:45:54;10.30;;;8.43;;
12474;SDS011;6302;42.624;23.334;2023-04-24T05:48:21;13.23;;;9.37;;
12474;SDS011;6302;42.624;23.334;2023-04-24T05:50:48;12.70;;;9.63;;
12474;SDS011;6302;42.624;23.334;2023-04-24T05:53:15;11.43;;;9.90;;
12474;SDS011;6302;42.624;23.334;2023-04-24T05:55:42;14.43;;;9.37;;
12474;SDS011;6302;42.624;23.334;2023-04-24T05:58:11;9.87;;;8.87;;
12474;SDS011;6302;42.624;23.334;2023-04-24T06:00:39;14.33;;;8.43;;
12474;SDS011;6302;42.624;23.334;2023-04-24T06:03:07;12.77;;;9.07;;
12474;SDS011;6302;42.624;23.334;2023-04-24T06:05:34;12.57;;;8.63;;
12474;SDS011;6302;42.624;23.334;2023-04-24T06:08:01;12.40;;;9.10;;
12474;SDS011;6302;42.624;23.334;2023-04-24T06:10:28;11.50;;;9.87;;
12474;SDS011;6302;42.624;23.334;2023-04-24T06:12:54;13.87;;;9.80;;
12474;SDS011;6302;42.624;23.334;2023-04-24T06:15:26;15.67;;;9.53;;
12474;SDS011;6302;42.624;23.334;2023-04-24T06:17:54;16.17;;;10.07;;
12474;SDS011;6302;42.624;23.334;2023-04-24T06:20:21;14.97;;;10.10;;
12474;SDS011;6302;42.624;23.334;2023-04-24T06:22:48;13.17;;;9.67;;
12474;SDS011;6302;42.624;23.334;2023-04-24T06:25:15;12.50;;;9.27;;
12474;SDS011;6302;42.624;23.334;2023-04-24T06:27:41;13.07;;;10.13;;
12474;SDS011;6302;42.624;23.334;2023-04-24T06:30:09;12.03;;;9.23;;
12474;SDS011;6302;42.624;23.334;2023-04-24T06:32:37;9.90;;;8.97;;
12474;SDS011;6302;42.624;23.334;2023-04-24T06:35:05;16.13;;;9.17;;
12474;SDS011;6302;42.624;23.334;2023-04-24T06:37:34;14.43;;;10.03;;
12474;SDS011;6302;42.624;23.334;2023-04-24T06:40:01;12.87;;;9.50;;
12474;SDS011;6302;42.624;23.334;2023-04-24T06:42:30;11.27;;;8.43;;
12474;SDS011;6302;42.624;23.334;2023-04-24T06:44:57;12.90;;;9.77;;
12474;SDS011;6302;42.624;23.334;2023-04-24T06:47:24;10.83;;;9.40;;
12474;SDS011;6302;42.624;23.334;2023-04-24T06:49:52;9.67;;;8.63;;
12474;SDS011;6302;42.624;23.334;2023-04-24T06:52:20;13.00;;;8.20;;
12474;SDS011;6302;42.624;23.334;2023-04-24T06:54:47;13.03;;;8.30;;
12474;SDS011;6302;42.624;23.334;2023-04-24T06:57:14;13.90;;;8.03;;
12474;SDS011;6302;42.624;23.334;2023-04-24T06:59:41;10.93;;;7.57;;
12474;SDS011;6302;42.624;23.334;2023-04-24T07:02:08;8.97;;;7.40;;
12474;SDS011;6302;42.624;23.334;2023-04-24T07:04:36;23.23;;;13.43;;
12474;SDS011;6302;42.624;23.334;2023-04-24T07:07:04;10.40;;;8.27;;
12474;SDS011;6302;42.624;23.334;2023-04-24T07:09:31;11.03;;;8.13;;
12474;SDS011;6302;42.624;23.334;2023-04-24T07:12:00;11.13;;;7.83;;
12474;SDS011;6302;42.624;23.334;2023-04-24T07:14:27;10.70;;;7.90;;
12474;SDS011;6302;42.624;23.334;2023-04-24T07:16:53;12.70;;;8.03;;
12474;SDS011;6302;42.624;23.334;2023-04-24T07:19:22;8.10;;;7.03;;
12474;SDS011;6302;42.624;23.334;2023-04-24T07:21:48;7.67;;;6.60;;
12474;SDS011;6302;42.624;23.334;2023-04-24T07:24:17;5.80;;;5.13;;
12474;SDS011;6302;42.624;23.334;2023-04-24T07:26:44;7.93;;;5.60;;
12474;SDS011;6302;42.624;23.334;2023-04-24T07:29:11;6.87;;;6.17;;
12474;SDS011;6302;42.624;23.334;2023-04-24T07:31:39;7.63;;;6.13;;
12474;SDS011;6302;42.624;23.334;2023-04-24T07:34:06;6.10;;;5.37;;
12474;SDS011;6302;42.624;23.334;2023-04-24T07:36:33;7.20;;;5.93;;
12474;SDS011;6302;42.624;23.334;2023-04-24T07:39:00;6.83;;;5.50;;
12474;SDS011;6302;42.624;23.334;2023-04-24T07:41:28;7.37;;;5.97;;
12474;SDS011;6302;42.624;23.334;2023-04-24T07:43:55;8.80;;;7.43;;
12474;SDS011;6302;42.624;23.334;2023-04-24T07:46:22;9.90;;;6.53;;
12474;SDS011;6302;42.624;23.334;2023-04-24T07:48:49;6.70;;;6.10;;
12474;SDS011;6302;42.624;23.334;2023-04-24T07:51:16;6.37;;;5.77;;
12474;SDS011;6302;42.624;23.334;2023-04-24T07:53:43;6.03;;;5.30;;
12474;SDS011;6302;42.624;23.334;2023-04-24T07:56:10;7.87;;;5.43;;
12474;SDS011;6302;42.624;23.334;2023-04-24T07:58:38;9.17;;;5.50;;
12474;SDS011;6302;42.624;23.334;2023-04-24T08:01:05;8.87;;;6.10;;
12474;SDS011;6302;42.624;23.334;2023-04-24T08:03:32;8.60;;;6.60;;
12474;SDS011;6302;42.624;23.334;2023-04-24T08:05:59;7.20;;;6.13;;
12474;SDS011;6302;42.624;23.334;2023-04-24T08:08:26;7.70;;;5.33;;
12474;SDS011;6302;42.624;23.334;2023-04-24T08:10:53;7.50;;;5.67;;
12474;SDS011;6302;42.624;23.334;2023-04-24T08:13:20;6.53;;;5.93;;
12474;SDS011;6302;42.624;23.334;2023-04-24T08:15:48;7.60;;;5.50;;
12474;SDS011;6302;42.624;23.334;2023-04-24T08:18:15;11.00;;;7.43;;
12474;SDS011;6302;42.624;23.334;2023-04-24T08:20:41;7.80;;;6.60;;
12474;SDS011;6302;42.624;23.334;2023-04-24T08:23:08;7.13;;;6.27;;
12474;SDS011;6302;42.624;23.334;2023-04-24T08:25:35;9.53;;;6.40;;
12474;SDS011;6302;42.624;23.334;2023-04-24T08:28:02;10.47;;;6.90;;
12474;SDS011;6302;42.624;23.334;2023-04-24T08:30:29;7.67;;;6.87;;
12474;SDS011;6302;42.624;23.334;2023-04-24T08:32:58;8.57;;;7.40;;
12474;SDS011;6302;42.624;23.334;2023-04-24T08:35:25;9.40;;;6.63;;
12474;SDS011;6302;42.624;23.334;2023-04-24T08:37:52;8.70;;;7.37;;
12474;SDS011;6302;42.624;23.334;2023-04-24T08:40:20;7.33;;;6.63;;
12474;SDS011;6302;42.624;23.334;2023-04-24T08:42:52;12.50;;;6.90;;
12474;SDS011;6302;42.624;23.334;2023-04-24T08:45:21;7.17;;;6.57;;
12474;SDS011;6302;42.624;23.334;2023-04-24T08:47:48;9.47;;;6.73;;
12474;SDS011;6302;42.624;23.334;2023-04-24T08:50:16;8.13;;;6.70;;
12474;SDS011;6302;42.624;23.334;2023-04-24T08:52:43;8.83;;;7.13;;
12474;SDS011;6302;42.624;23.334;2023-04-24T08:55:10;7.90;;;6.57;;
12474;SDS011;6302;42.624;23.334;2023-04-24T08:57:37;8.13;;;6.70;;
12474;SDS011;6302;42.624;23.334;2023-04-24T09:00:06;8.67;;;6.47;;
12474;SDS011;6302;42.624;23.334;2023-04-24T09:02:34;9.10;;;6.73;;
12474;SDS011;6302;42.624;23.334;2023-04-24T09:05:00;9.77;;;6.33;;
12474;SDS011;6302;42.624;23.334;2023-04-24T09:07:30;10.10;;;6.10;;
12474;SDS011;6302;42.624;23.334;2023-04-24T09:10:03;7.67;;;6.50;;
12474;SDS011;6302;42.624;23.334;2023-04-24T09:12:30;8.03;;;6.63;;
12474;SDS011;6302;42.624;23.334;2023-04-24T09:14:57;12.73;;;6.90;;
12474;SDS011;6302;42.624;23.334;2023-04-24T09:17:25;8.27;;;6.23;;
12474;SDS011;6302;42.624;23.334;2023-04-24T09:19:53;8.20;;;6.53;;
12474;SDS011;6302;42.624;23.334;2023-04-24T09:22:20;9.70;;;6.97;;
12474;SDS011;6302;42.624;23.334;2023-04-24T09:24:49;8.87;;;6.17;;
12474;SDS011;6302;42.624;23.334;2023-04-24T09:27:28;6.53;;;5.90;;
12474;SDS011;6302;42.624;23.334;2023-04-24T09:29:55;8.23;;;5.90;;
12474;SDS011;6302;42.624;23.334;2023-04-24T09:32:22;10.50;;;6.73;;
12474;SDS011;6302;42.624;23.334;2023-04-24T09:35:04;6.73;;;5.93;;
12474;SDS011;6302;42.624;23.334;2023-04-24T09:37:34;7.03;;;5.30;;
12474;SDS011;6302;42.624;23.334;2023-04-24T09:40:13;8.90;;;5.60;;
12474;SDS011;6302;42.624;23.334;2023-04-24T09:42:45;6.87;;;5.93;;
12474;SDS011;6302;42.624;23.334;2023-04-24T09:45:12;6.37;;;5.70;;
12474;SDS011;6302;42.624;23.334;2023-04-24T09:47:40;7.27;;;5.70;;
12474;SDS011;6302;42.624;23.334;2023-04-24T09:50:10;7.27;;;5.83;;
12474;SDS011;6302;42.624;23.334;2023-04-24T09:52:40;5.63;;;5.10;;
12474;SDS011;6302;42.624;23.334;2023-04-24T09:55:13;6.27;;;4.73;;
12474;SDS011;6302;42.624;23.334;2023-04-24T09:57:47;9.93;;;5.60;;
12474;SDS011;6302;42.624;23.334;2023-04-24T10:00:17;6.37;;;5.10;;
12474;SDS011;6302;42.624;23.334;2023-04-24T10:02:49;6.90;;;4.87;;
12474;SDS011;6302;42.624;23.334;2023-04-24T10:05:17;9.13;;;4.90;;
12474;SDS011;6302;42.624;23.334;2023-04-24T10:07:44;5.73;;;5.20;;
12474;SDS011;6302;42.624;23.334;2023-04-24T10:10:12;6.90;;;5.30;;
12474;SDS011;6302;42.624;23.334;2023-04-24T10:12:39;5.83;;;4.57;;
12474;SDS011;6302;42.624;23.334;2023-04-24T10:15:08;5.47;;;4.80;;
12474;SDS011;6302;42.624;23.334;2023-04-24T10:17:38;5.63;;;5.13;;
12474;SDS011;6302;42.624;23.334;2023-04-24T10:20:06;6.77;;;5.07;;
12474;SDS011;6302;42.624;23.334;2023-04-24T10:22:34;5.17;;;4.77;;
12474;SDS011;6302;42.624;23.334;2023-04-24T10:25:03;5.63;;;4.67;;
12474;SDS011;6302;42.624;23.334;2023-04-24T10:27:33;7.47;;;4.90;;
12474;SDS011;6302;42.624;23.334;2023-04-24T10:30:01;5.43;;;4.80;;
12474;SDS011;6302;42.624;23.334;2023-04-24T10:32:28;4.93;;;4.20;;
12474;SDS011;6302;42.624;23.334;2023-04-24T10:34:56;6.60;;;4.40;;
12474;SDS011;6302;42.624;23.334;2023-04-24T10:37:23;5.73;;;4.43;;
12474;SDS011;6302;42.624;23.334;2023-04-24T10:39:51;5.80;;;4.40;;
12474;SDS011;6302;42.624;23.334;2023-04-24T10:42:19;7.33;;;4.53;;
12474;SDS011;6302;42.624;23.334;2023-04-24T10:44:48;5.07;;;4.57;;
12474;SDS011;6302;42.624;23.334;2023-04-24T10:47:15;5.10;;;4.45;;
12474;SDS011;6302;42.624;23.334;2023-04-24T10:49:42;4.75;;;4.15;;
12474;SDS011;6302;42.624;23.334;2023-04-24T10:52:09;5.27;;;3.97;;
12474;SDS011;6302;42.624;23.334;2023-04-24T10:54:40;4.97;;;4.47;;
12474;SDS011;6302;42.624;23.334;2023-04-24T11:02:45;4.68;;;4.28;;
12474;SDS011;6302;42.624;23.334;2023-04-24T11:05:15;5.13;;;4.60;;
12474;SDS011;6302;42.624;23.334;2023-04-24T11:10:38;5.37;;;4.43;;
12474;SDS011;6302;42.624;23.334;2023-04-24T11:13:06;5.50;;;3.87;;
12474;SDS011;6302;42.624;23.334;2023-04-24T11:15:34;6.15;;;4.03;;
12474;SDS011;6302;42.624;23.334;2023-04-24T11:18:01;6.70;;;4.18;;
12474;SDS011;6302;42.624;23.334;2023-04-24T11:20:28;4.72;;;4.00;;
12474;SDS011;6302;42.624;23.334;2023-04-24T11:22:55;4.35;;;4.00;;
12474;SDS011;6302;42.624;23.334;2023-04-24T11:25:31;5.30;;;3.90;;
12474;SDS011;6302;42.624;23.334;2023-04-24T11:28:07;5.38;;;4.30;;
12474;SDS011;6302;42.624;23.334;2023-04-24T11:30:43;6.53;;;4.80;;
12474;SDS011;6302;42.624;23.334;2023-04-24T11:33:10;5.27;;;3.70;;
12474;SDS011;6302;42.624;23.334;2023-04-24T11:35:39;5.07;;;3.10;;
12474;SDS011;6302;42.624;23.334;2023-04-24T11:38:06;5.70;;;3.60;;
12474;SDS011;6302;42.624;23.334;2023-04-24T11:40:33;4.63;;;4.23;;
12474;SDS011;6302;42.624;23.334;2023-04-24T11:43:00;5.17;;;4.63;;
12474;SDS011;6302;42.624;23.334;2023-04-24T11:45:28;5.53;;;4.80;;
12474;SDS011;6302;42.624;23.334;2023-04-24T11:47:57;6.57;;;5.03;;
12474;SDS011;6302;42.624;23.334;2023-04-24T11:50:25;5.80;;;5.20;;
12474;SDS011;6302;42.624;23.334;2023-04-24T11:52:53;5.20;;;4.70;;
12474;SDS011;6302;42.624;23.334;2023-04-24T11:55:27;6.10;;;5.00;;
12474;SDS011;6302;42.624;23.334;2023-04-24T11:57:55;5.97;;;5.00;;
12474;SDS011;6302;42.624;23.334;2023-04-24T12:00:24;5.30;;;4.90;;
12474;SDS011;6302;42.624;23.334;2023-04-24T12:02:53;5.27;;;4.87;;
12474;SDS011;6302;42.624;23.334;2023-04-24T12:05:32;4.93;;;4.53;;
12474;SDS011;6302;42.624;23.334;2023-04-24T12:07:59;6.00;;;5.40;;
12474;SDS011;6302;42.624;23.334;2023-04-24T12:10:27;5.23;;;4.83;;
12474;SDS011;6302;42.624;23.334;2023-04-24T12:12:56;6.37;;;5.10;;
12474;SDS011;6302;42.624;23.334;2023-04-24T12:15:23;5.67;;;5.00;;
12474;SDS011;6302;42.624;23.334;2023-04-24T12:17:51;5.23;;;4.73;;
12474;SDS011;6302;42.624;23.334;2023-04-24T12:20:23;4.30;;;3.90;;
12474;SDS011;6302;42.624;23.334;2023-04-24T12:22:51;4.23;;;3.83;;
12474;SDS011;6302;42.624;23.334;2023-04-24T12:25:20;3.47;;;3.23;;
12474;SDS011;6302;42.624;23.334;2023-04-24T12:27:52;3.80;;;3.50;;
12474;SDS011;6302;42.624;23.334;2023-04-24T12:30:21;3.73;;;3.40;;
12474;SDS011;6302;42.624;23.334;2023-04-24T12:32:52;5.23;;;4.57;;
12474;SDS011;6302;42.624;23.334;2023-04-24T12:35:22;5.10;;;4.60;;
12474;SDS011;6302;42.624;23.334;2023-04-24T12:37:49;5.97;;;4.40;;
12474;SDS011;6302;42.624;23.334;2023-04-24T12:40:17;5.33;;;4.50;;
12474;SDS011;6302;42.624;23.334;2023-04-24T12:42:45;4.90;;;4.43;;
12474;SDS011;6302;42.624;23.334;2023-04-24T12:45:14;6.00;;;4.67;;
12474;SDS011;6302;42.624;23.334;2023-04-24T12:47:43;5.30;;;4.87;;
12474;SDS011;6302;42.624;23.334;2023-04-24T12:50:12;5.40;;;4.90;;
12474;SDS011;6302;42.624;23.334;2023-04-24T12:52:41;5.50;;;5.00;;
12474;SDS011;6302;42.624;23.334;2023-04-24T12:55:09;5.67;;;5.10;;
12474;SDS011;6302;42.624;23.334;2023-04-24T12:57:37;5.40;;;4.90;;
12474;SDS011;6302;42.624;23.334;2023-04-24T13:00:05;6.07;;;4.80;;
12474;SDS011;6302;42.624;23.334;2023-04-24T13:02:33;4.83;;;4.43;;
12474;SDS011;6302;42.624;23.334;2023-04-24T13:05:00;3.93;;;3.63;;
12474;SDS011;6302;42.624;23.334;2023-04-24T13:07:28;5.20;;;4.13;;
12474;SDS011;6302;42.624;23.334;2023-04-24T13:09:56;4.60;;;4.20;;
12474;SDS011;6302;42.624;23.334;2023-04-24T13:12:23;4.20;;;3.90;;
12474;SDS011;6302;42.624;23.334;2023-04-24T13:14:51;5.17;;;4.67;;
12474;SDS011;6302;42.624;23.334;2023-04-24T13:17:18;4.30;;;4.00;;
12474;SDS011;6302;42.624;23.334;2023-04-24T13:19:45;5.67;;;4.67;;
12474;SDS011;6302;42.624;23.334;2023-04-24T13:22:12;4.87;;;4.40;;
12474;SDS011;6302;42.624;23.334;2023-04-24T13:24:39;4.77;;;3.80;;
12474;SDS011;6302;42.624;23.334;2023-04-24T13:27:08;4.87;;;4.20;;
12474;SDS011;6302;42.624;23.334;2023-04-24T13:29:35;3.92;;;3.63;;
12474;SDS011;6302;42.624;23.334;2023-04-24T13:32:02;4.53;;;4.07;;
12474;SDS011;6302;42.624;23.334;2023-04-24T13:34:29;4.60;;;4.30;;
12474;SDS011;6302;42.624;23.334;2023-04-24T13:36:57;4.05;;;3.75;;
12474;SDS011;6302;42.624;23.334;2023-04-24T13:39:24;4.10;;;3.73;;
12474;SDS011;6302;42.624;23.334;2023-04-24T13:41:51;4.73;;;3.90;;
12474;SDS011;6302;42.624;23.334;2023-04-24T13:44:21;4.63;;;3.70;;
12474;SDS011;6302;42.624;23.334;2023-04-24T13:46:49;3.70;;;3.40;;
12474;SDS011;6302;42.624;23.334;2023-04-24T13:49:19;5.85;;;4.28;;
12474;SDS011;6302;42.624;23.334;2023-04-24T13:51:46;3.90;;;3.50;;
12474;SDS011;6302;42.624;23.334;2023-04-24T13:54:13;4.55;;;3.70;;
12474;SDS011;6302;42.624;23.334;2023-04-24T13:56:41;3.93;;;3.40;;
12474;SDS011;6302;42.624;23.334;2023-04-24T13:59:08;6.07;;;3.23;;
12474;SDS011;6302;42.624;23.334;2023-04-24T14:01:36;3.85;;;3.45;;
12474;SDS011;6302;42.624;23.334;2023-04-24T14:04:03;3.80;;;3.23;;
12474;SDS011;6302;42.624;23.334;2023-04-24T14:06:30;4.95;;;3.42;;
12474;SDS011;6302;42.624;23.334;2023-04-24T14:08:57;3.70;;;3.42;;
12474;SDS011;6302;42.624;23.334;2023-04-24T14:11:24;4.40;;;3.10;;
12474;SDS011;6302;42.624;23.334;2023-04-24T14:13:52;4.30;;;4.00;;
12474;SDS011;6302;42.624;23.334;2023-04-24T14:16:21;3.83;;;3.53;;
12474;SDS011;6302;42.624;23.334;2023-04-24T14:18:49;5.20;;;3.60;;
12474;SDS011;6302;42.624;23.334;2023-04-24T14:21:16;4.53;;;3.50;;
12474;SDS011;6302;42.624;23.334;2023-04-24T14:23:43;3.85;;;3.45;;
12474;SDS011;6302;42.624;23.334;2023-04-24T14:26:10;3.65;;;3.03;;
12474;SDS011;6302;42.624;23.334;2023-04-24T14:28:37;3.60;;;3.30;;
12474;SDS011;6302;42.624;23.334;2023-04-24T14:31:04;3.97;;;3.47;;
12474;SDS011;6302;42.624;23.334;2023-04-24T14:33:31;3.72;;;3.35;;
12474;SDS011;6302;42.624;23.334;2023-04-24T14:35:59;5.63;;;2.83;;
12474;SDS011;6302;42.624;23.334;2023-04-24T14:38:27;3.45;;;3.15;;
12474;SDS011;6302;42.624;23.334;2023-04-24T14:40:55;5.38;;;3.55;;
12474;SDS011;6302;42.624;23.334;2023-04-24T14:43:22;3.38;;;3.08;;
12474;SDS011;6302;42.624;23.334;2023-04-24T14:45:48;4.18;;;3.60;;
12474;SDS011;6302;42.624;23.334;2023-04-24T14:48:15;4.68;;;3.67;;
12474;SDS011;6302;42.624;23.334;2023-04-24T14:50:42;3.57;;;3.30;;
12474;SDS011;6302;42.624;23.334;2023-04-24T14:53:11;3.93;;;3.63;;
12474;SDS011;6302;42.624;23.334;2023-04-24T14:55:38;4.20;;;3.78;;